sensor_id;sensor_type;location;lat;lon;timestamp;temperature;humidity
14737;DHT22;7459;53.590;10.062;2023-04-24T00:00:17;14.40;99.90
14737;DHT22;7459;53.590;10.062;2023-04-24T00:02:44;14.40;99.90
14737;DHT22;7459;53.590;10.062;2023-04-24T00:05:16;14.40;99.90
14737;DHT22;7459;53.590;10.062;2023-04-24T00:07:43;14.40;99.90
14737;DHT22;7459;53.590;10.062;2023-04-24T00:10:10;14.40;99.90
14737;DHT22;7459;53.590;10.062;2023-04-24T00:12:36;14.40;99.90
14737;DHT22;7459;53.590;10.062;2023-04-24T00:15:03;14.40;99.90
14737;DHT22;7459;53.590;10.062;2023-04-24T00:17:29;14.40;99.90
14737;DHT22;7459;53.590;10.062;2023-04-24T00:19:55;14.40;99.90
14737;DHT22;7459;53.590;10.062;2023-04-24T00:22:25;14.40;99.90
14737;DHT22;7459;53.590;10.062;2023-04-24T00:24:51;14.30;99.90
14737;DHT22;7459;53.590;10.062;2023-04-24T00:27:16;14.30;99.90
14737;DHT22;7459;53.590;10.062;2023-04-24T00:29:42;14.30;99.90
14737;DHT22;7459;53.590;10.062;2023-04-24T00:32:08;14.30;99.90
14737;DHT22;7459;53.590;10.062;2023-04-24T00:34:34;14.30;99.90
14737;DHT22;7459;53.590;10.062;2023-04-24T00:36:59;14.30;99.90
14737;DHT22;7459;53.590;10.062;2023-04-24T00:39:25;14.30;99.90
14737;DHT22;7459;53.590;10.062;2023-04-24T00:41:51;14.30;99.90
14737;DHT22;7459;53.590;10.062;2023-04-24T00:44:17;14.40;99.90
14737;DHT22;7459;53.590;10.062;2023-04-24T00:46:43;14.40;99.90
14737;DHT22;7459;53.590;10.062;2023-04-24T00:49:09;14.40;99.90
14737;DHT22;7459;53.590;10.062;2023-04-24T00:51:35;14.30;99.90
14737;DHT22;7459;53.590;10.062;2023-04-24T00:54:02;14.30;99.90
14737;DHT22;7459;53.590;10.062;2023-04-24T00:56:28;14.30;99.90
14737;DHT22;7459;53.590;10.062;2023-04-24T00:58:54;14.30;99.90
14737;DHT22;7459;53.590;10.062;2023-04-24T01:01:20;14.30;99.90
14737;DHT22;7459;53.590;10.062;2023-04-24T01:03:48;14.20;99.90
14737;DHT22;7459;53.590;10.062;2023-04-24T01:06:15;14.20;99.90
14737;DHT22;7459;53.590;10.062;2023-04-24T01:08:41;14.20;99.90
14737;DHT22;7459;53.590;10.062;2023-04-24T01:11:07;14.20;99.90
14737;DHT22;7459;53.590;10.062;2023-04-24T01:13:34;14.30;99.90
14737;DHT22;7459;53.590;10.062;2023-04-24T01:16:00;14.20;99.90
14737;DHT22;7459;53.590;10.062;2023-04-24T01:18:26;14.20;99.90
14737;DHT22;7459;53.590;10.062;2023-04-24T01:20:54;14.20;99.90
14737;DHT22;7459;53.590;10.062;2023-04-24T01:23:22;14.20;99.90
14737;DHT22;7459;53.590;10.062;2023-04-24T01:25:49;14.20;99.90
14737;DHT22;7459;53.590;10.062;2023-04-24T01:28:16;14.10;99.90
14737;DHT22;7459;53.590;10.062;2023-04-24T01:30:42;14.10;99.90
14737;DHT22;7459;53.590;10.062;2023-04-24T01:33:08;14.10;99.90
14737;DHT22;7459;53.590;10.062;2023-04-24T01:35:35;14.10;99.90
14737;DHT22;7459;53.590;10.062;2023-04-24T01:38:02;14.10;99.90
14737;DHT22;7459;53.590;10.062;2023-04-24T01:40:28;14.00;99.90
14737;DHT22;7459;53.590;10.062;2023-04-24T01:42:54;14.00;99.90
14737;DHT22;7459;53.590;10.062;2023-04-24T01:45:20;13.90;99.90
14737;DHT22;7459;53.590;10.062;2023-04-24T01:47:46;13.90;99.90
14737;DHT22;7459;53.590;10.062;2023-04-24T01:50:14;13.90;99.90
14737;DHT22;7459;53.590;10.062;2023-04-24T01:52:39;13.80;99.90
14737;DHT22;7459;53.590;10.062;2023-04-24T01:55:06;13.90;99.90
14737;DHT22;7459;53.590;10.062;2023-04-24T01:57:33;13.90;99.90
14737;DHT22;7459;53.590;10.062;2023-04-24T02:02:30;14.00;99.90
14737;DHT22;7459;53.590;10.062;2023-04-24T02:04:57;13.90;99.90
14737;DHT22;7459;53.590;10.062;2023-04-24T02:07:22;13.80;99.90
14737;DHT22;7459;53.590;10.062;2023-04-24T02:09:48;13.80;99.90
14737;DHT22;7459;53.590;10.062;2023-04-24T02:12:15;13.70;99.90
14737;DHT22;7459;53.590;10.062;2023-04-24T02:14:42;13.70;99.90
14737;DHT22;7459;53.590;10.062;2023-04-24T02:17:08;13.70;99.90
14737;DHT22;7459;53.590;10.062;2023-04-24T02:19:34;13.70;99.90
14737;DHT22;7459;53.590;10.062;2023-04-24T02:22:00;13.70;99.90
14737;DHT22;7459;53.590;10.062;2023-04-24T02:24:26;13.70;99.90
14737;DHT22;7459;53.590;10.062;2023-04-24T02:26:52;13.70;99.90
14737;DHT22;7459;53.590;10.062;2023-04-24T02:29:17;13.70;99.90
14737;DHT22;7459;53.590;10.062;2023-04-24T02:31:43;13.70;99.90
14737;DHT22;7459;53.590;10.062;2023-04-24T02:34:09;13.70;99.90
14737;DHT22;7459;53.590;10.062;2023-04-24T02:36:34;13.70;99.90
14737;DHT22;7459;53.590;10.062;2023-04-24T02:39:00;13.70;99.90
14737;DHT22;7459;53.590;10.062;2023-04-24T02:41:26;13.70;99.90
14737;DHT22;7459;53.590;10.062;2023-04-24T02:43:57;13.70;99.90
14737;DHT22;7459;53.590;10.062;2023-04-24T02:46:23;13.60;99.90
14737;DHT22;7459;53.590;10.062;2023-04-24T02:48:48;13.60;99.90
14737;DHT22;7459;53.590;10.062;2023-04-24T02:51:14;13.60;99.90
14737;DHT22;7459;53.590;10.062;2023-04-24T02:53:40;13.60;99.90
14737;DHT22;7459;53.590;10.062;2023-04-24T02:56:06;13.60;99.90
14737;DHT22;7459;53.590;10.062;2023-04-24T02:58:31;13.60;99.90
14737;DHT22;7459;53.590;10.062;2023-04-24T03:00:57;13.50;99.90
14737;DHT22;7459;53.590;10.062;2023-04-24T03:03:23;13.50;99.90
14737;DHT22;7459;53.590;10.062;2023-04-24T03:05:49;13.40;99.90
14737;DHT22;7459;53.590;10.062;2023-04-24T03:08:15;13.40;99.90
14737;DHT22;7459;53.590;10.062;2023-04-24T03:10:41;13.40;99.90
14737;DHT22;7459;53.590;10.062;2023-04-24T03:13:07;13.40;99.90
14737;DHT22;7459;53.590;10.062;2023-04-24T03:15:32;13.40;99.90
14737;DHT22;7459;53.590;10.062;2023-04-24T03:17:58;13.40;99.90
14737;DHT22;7459;53.590;10.062;2023-04-24T03:20:25;13.30;99.90
14737;DHT22;7459;53.590;10.062;2023-04-24T03:22:51;13.30;99.90
14737;DHT22;7459;53.590;10.062;2023-04-24T03:25:17;13.30;99.90
14737;DHT22;7459;53.590;10.062;2023-04-24T03:27:43;13.20;99.90
14737;DHT22;7459;53.590;10.062;2023-04-24T03:30:09;13.20;99.90
14737;DHT22;7459;53.590;10.062;2023-04-24T03:32:35;13.10;99.90
14737;DHT22;7459;53.590;10.062;2023-04-24T03:35:01;13.10;99.90
14737;DHT22;7459;53.590;10.062;2023-04-24T03:37:26;13.10;99.90
14737;DHT22;7459;53.590;10.062;2023-04-24T03:39:52;13.10;99.90
14737;DHT22;7459;53.590;10.062;2023-04-24T03:42:18;13.10;99.90
14737;DHT22;7459;53.590;10.062;2023-04-24T03:44:44;13.10;99.90
14737;DHT22;7459;53.590;10.062;2023-04-24T03:47:09;13.00;99.90
14737;DHT22;7459;53.590;10.062;2023-04-24T03:49:35;13.00;99.90
14737;DHT22;7459;53.590;10.062;2023-04-24T03:52:01;13.00;99.90
14737;DHT22;7459;53.590;10.062;2023-04-24T03:54:27;13.00;99.90
14737;DHT22;7459;53.590;10.062;2023-04-24T03:56:53;12.90;99.90
14737;DHT22;7459;53.590;10.062;2023-04-24T03:59:18;12.90;99.90
14737;DHT22;7459;53.590;10.062;2023-04-24T04:01:44;12.90;99.90
14737;DHT22;7459;53.590;10.062;2023-04-24T04:04:11;12.80;99.90
14737;DHT22;7459;53.590;10.062;2023-04-24T04:06:36;12.90;99.90
14737;DHT22;7459;53.590;10.062;2023-04-24T04:09:02;12.80;99.90
14737;DHT22;7459;53.590;10.062;2023-04-24T04:11:29;12.80;99.90
14737;DHT22;7459;53.590;10.062;2023-04-24T04:13:55;12.80;99.90
14737;DHT22;7459;53.590;10.062;2023-04-24T04:16:22;12.80;99.90
14737;DHT22;7459;53.590;10.062;2023-04-24T04:18:48;12.80;99.90
14737;DHT22;7459;53.590;10.062;2023-04-24T04:21:14;12.70;99.90
14737;DHT22;7459;53.590;10.062;2023-04-24T04:23:40;12.70;99.90
14737;DHT22;7459;53.590;10.062;2023-04-24T04:26:06;12.70;99.90
14737;DHT22;7459;53.590;10.062;2023-04-24T04:28:33;12.60;99.90
14737;DHT22;7459;53.590;10.062;2023-04-24T04:30:58;12.60;99.90
14737;DHT22;7459;53.590;10.062;2023-04-24T04:33:24;12.60;99.90
14737;DHT22;7459;53.590;10.062;2023-04-24T04:35:51;12.60;99.90
14737;DHT22;7459;53.590;10.062;2023-04-24T04:38:18;12.60;99.90
14737;DHT22;7459;53.590;10.062;2023-04-24T04:40:45;12.60;99.90
14737;DHT22;7459;53.590;10.062;2023-04-24T04:43:11;12.60;99.90
14737;DHT22;7459;53.590;10.062;2023-04-24T04:45:38;12.60;99.90
14737;DHT22;7459;53.590;10.062;2023-04-24T04:48:06;12.60;99.90
14737;DHT22;7459;53.590;10.062;2023-04-24T04:50:34;12.60;99.90
14737;DHT22;7459;53.590;10.062;2023-04-24T04:53:00;12.60;99.90
14737;DHT22;7459;53.590;10.062;2023-04-24T04:55:26;12.70;99.90
14737;DHT22;7459;53.590;10.062;2023-04-24T04:57:52;12.70;99.90
14737;DHT22;7459;53.590;10.062;2023-04-24T05:00:18;12.70;99.90
14737;DHT22;7459;53.590;10.062;2023-04-24T05:02:43;12.70;99.90
14737;DHT22;7459;53.590;10.062;2023-04-24T05:05:10;12.60;99.90
14737;DHT22;7459;53.590;10.062;2023-04-24T05:07:35;12.70;99.90
14737;DHT22;7459;53.590;10.062;2023-04-24T05:10:01;12.70;99.90
14737;DHT22;7459;53.590;10.062;2023-04-24T05:12:27;12.70;99.90
14737;DHT22;7459;53.590;10.062;2023-04-24T05:14:53;12.80;99.90
14737;DHT22;7459;53.590;10.062;2023-04-24T05:17:19;12.80;99.90
14737;DHT22;7459;53.590;10.062;2023-04-24T05:19:45;12.80;99.90
14737;DHT22;7459;53.590;10.062;2023-04-24T05:22:11;12.70;99.90
14737;DHT22;7459;53.590;10.062;2023-04-24T05:24:37;12.70;99.90
14737;DHT22;7459;53.590;10.062;2023-04-24T05:27:03;12.70;99.90
14737;DHT22;7459;53.590;10.062;2023-04-24T05:29:32;12.70;99.90
14737;DHT22;7459;53.590;10.062;2023-04-24T05:31:58;12.70;99.90
14737;DHT22;7459;53.590;10.062;2023-04-24T05:34:25;12.80;99.90
14737;DHT22;7459;53.590;10.062;2023-04-24T05:36:50;12.80;99.90
14737;DHT22;7459;53.590;10.062;2023-04-24T05:39:16;12.80;99.90
14737;DHT22;7459;53.590;10.062;2023-04-24T05:41:42;12.80;99.90
14737;DHT22;7459;53.590;10.062;2023-04-24T05:44:08;12.80;99.90
14737;DHT22;7459;53.590;10.062;2023-04-24T05:46:34;12.80;99.90
14737;DHT22;7459;53.590;10.062;2023-04-24T05:49:00;12.90;99.90
14737;DHT22;7459;53.590;10.062;2023-04-24T05:51:26;12.80;99.90
14737;DHT22;7459;53.590;10.062;2023-04-24T05:53:52;12.80;99.90
14737;DHT22;7459;53.590;10.062;2023-04-24T05:56:18;12.90;99.90
14737;DHT22;7459;53.590;10.062;2023-04-24T05:58:44;12.90;99.90
14737;DHT22;7459;53.590;10.062;2023-04-24T06:01:11;12.90;99.90
14737;DHT22;7459;53.590;10.062;2023-04-24T06:03:38;12.90;99.90
14737;DHT22;7459;53.590;10.062;2023-04-24T06:06:06;13.00;99.90
14737;DHT22;7459;53.590;10.062;2023-04-24T06:08:32;13.00;99.90
14737;DHT22;7459;53.590;10.062;2023-04-24T06:10:58;13.00;99.90
14737;DHT22;7459;53.590;10.062;2023-04-24T06:13:24;13.00;99.90
14737;DHT22;7459;53.590;10.062;2023-04-24T06:15:49;13.00;99.90
14737;DHT22;7459;53.590;10.062;2023-04-24T06:18:16;13.00;99.90
14737;DHT22;7459;53.590;10.062;2023-04-24T06:20:42;13.00;99.90
14737;DHT22;7459;53.590;10.062;2023-04-24T06:23:08;13.00;99.90
14737;DHT22;7459;53.590;10.062;2023-04-24T06:25:34;13.00;99.90
14737;DHT22;7459;53.590;10.062;2023-04-24T06:28:00;13.10;99.90
14737;DHT22;7459;53.590;10.062;2023-04-24T06:30:27;13.10;99.90
14737;DHT22;7459;53.590;10.062;2023-04-24T06:32:53;13.10;99.90
14737;DHT22;7459;53.590;10.062;2023-04-24T06:35:19;13.10;99.90
14737;DHT22;7459;53.590;10.062;2023-04-24T06:37:45;13.20;99.90
14737;DHT22;7459;53.590;10.062;2023-04-24T06:40:11;13.10;99.90
14737;DHT22;7459;53.590;10.062;2023-04-24T06:42:37;13.20;99.90
14737;DHT22;7459;53.590;10.062;2023-04-24T06:45:03;13.20;99.90
14737;DHT22;7459;53.590;10.062;2023-04-24T06:47:29;13.20;99.90
14737;DHT22;7459;53.590;10.062;2023-04-24T06:49:55;13.30;99.90
14737;DHT22;7459;53.590;10.062;2023-04-24T06:52:21;13.30;99.90
14737;DHT22;7459;53.590;10.062;2023-04-24T06:54:46;13.30;99.90
14737;DHT22;7459;53.590;10.062;2023-04-24T06:57:12;13.30;99.90
14737;DHT22;7459;53.590;10.062;2023-04-24T06:59:38;13.30;99.90
14737;DHT22;7459;53.590;10.062;2023-04-24T07:02:04;13.40;99.90
14737;DHT22;7459;53.590;10.062;2023-04-24T07:04:30;13.40;99.90
14737;DHT22;7459;53.590;10.062;2023-04-24T07:06:56;13.40;99.90
14737;DHT22;7459;53.590;10.062;2023-04-24T07:09:24;13.50;99.90
14737;DHT22;7459;53.590;10.062;2023-04-24T07:11:51;13.50;99.90
14737;DHT22;7459;53.590;10.062;2023-04-24T07:14:17;13.50;99.90
14737;DHT22;7459;53.590;10.062;2023-04-24T07:16:43;13.50;99.90
14737;DHT22;7459;53.590;10.062;2023-04-24T07:19:09;13.50;99.90
14737;DHT22;7459;53.590;10.062;2023-04-24T07:21:35;13.60;99.90
14737;DHT22;7459;53.590;10.062;2023-04-24T07:24:01;13.60;99.90
14737;DHT22;7459;53.590;10.062;2023-04-24T07:26:28;13.60;99.90
14737;DHT22;7459;53.590;10.062;2023-04-24T07:28:55;13.60;99.90
14737;DHT22;7459;53.590;10.062;2023-04-24T07:31:21;13.60;99.90
14737;DHT22;7459;53.590;10.062;2023-04-24T07:33:47;13.60;99.90
14737;DHT22;7459;53.590;10.062;2023-04-24T07:36:13;13.60;99.90
14737;DHT22;7459;53.590;10.062;2023-04-24T07:38:47;13.60;99.90
14737;DHT22;7459;53.590;10.062;2023-04-24T07:41:13;13.60;99.90
14737;DHT22;7459;53.590;10.062;2023-04-24T07:43:39;13.70;99.90
14737;DHT22;7459;53.590;10.062;2023-04-24T07:46:06;13.70;99.90
14737;DHT22;7459;53.590;10.062;2023-04-24T07:48:32;13.70;99.90
14737;DHT22;7459;53.590;10.062;2023-04-24T07:50:58;13.70;99.90
14737;DHT22;7459;53.590;10.062;2023-04-24T07:53:23;13.70;99.90
14737;DHT22;7459;53.590;10.062;2023-04-24T07:55:49;13.70;99.90
14737;DHT22;7459;53.590;10.062;2023-04-24T07:58:15;13.70;99.90
14737;DHT22;7459;53.590;10.062;2023-04-24T08:00:41;13.80;99.90
14737;DHT22;7459;53.590;10.062;2023-04-24T08:03:06;13.80;99.90
14737;DHT22;7459;53.590;10.062;2023-04-24T08:05:32;13.90;99.90
14737;DHT22;7459;53.590;10.062;2023-04-24T08:07:58;13.90;99.90
14737;DHT22;7459;53.590;10.062;2023-04-24T08:10:24;13.90;99.90
14737;DHT22;7459;53.590;10.062;2023-04-24T08:12:50;13.90;99.90
14737;DHT22;7459;53.590;10.062;2023-04-24T08:15:16;13.90;99.90
14737;DHT22;7459;53.590;10.062;2023-04-24T08:17:42;13.90;99.90
14737;DHT22;7459;53.590;10.062;2023-04-24T08:20:09;13.90;99.90
14737;DHT22;7459;53.590;10.062;2023-04-24T08:22:39;13.90;99.90
14737;DHT22;7459;53.590;10.062;2023-04-24T08:25:06;13.90;99.90
14737;DHT22;7459;53.590;10.062;2023-04-24T08:27:32;13.90;99.90
14737;DHT22;7459;53.590;10.062;2023-04-24T08:29:58;13.90;99.90
14737;DHT22;7459;53.590;10.062;2023-04-24T08:32:26;13.90;99.90
14737;DHT22;7459;53.590;10.062;2023-04-24T08:34:56;13.90;99.90
14737;DHT22;7459;53.590;10.062;2023-04-24T08:37:22;13.90;99.90
14737;DHT22;7459;53.590;10.062;2023-04-24T08:39:49;13.90;99.90
14737;DHT22;7459;53.590;10.062;2023-04-24T08:42:17;13.90;99.90
14737;DHT22;7459;53.590;10.062;2023-04-24T08:44:44;13.80;99.90
14737;DHT22;7459;53.590;10.062;2023-04-24T08:47:10;13.80;99.90
14737;DHT22;7459;53.590;10.062;2023-04-24T08:49:38;13.80;99.90
14737;DHT22;7459;53.590;10.062;2023-04-24T08:52:05;13.70;99.90
14737;DHT22;7459;53.590;10.062;2023-04-24T08:54:33;13.70;99.90
14737;DHT22;7459;53.590;10.062;2023-04-24T08:57:01;13.70;99.90
14737;DHT22;7459;53.590;10.062;2023-04-24T08:59:29;13.70;99.90
14737;DHT22;7459;53.590;10.062;2023-04-24T09:01:56;13.70;99.90
14737;DHT22;7459;53.590;10.062;2023-04-24T09:04:23;13.60;99.90
14737;DHT22;7459;53.590;10.062;2023-04-24T09:06:51;13.60;99.90
14737;DHT22;7459;53.590;10.062;2023-04-24T09:09:20;13.60;99.90
14737;DHT22;7459;53.590;10.062;2023-04-24T09:11:46;13.70;99.90
14737;DHT22;7459;53.590;10.062;2023-04-24T09:14:14;13.70;99.90
14737;DHT22;7459;53.590;10.062;2023-04-24T09:16:41;13.70;99.90
14737;DHT22;7459;53.590;10.062;2023-04-24T09:19:07;13.70;99.90
14737;DHT22;7459;53.590;10.062;2023-04-24T09:21:34;13.80;99.90
14737;DHT22;7459;53.590;10.062;2023-04-24T09:24:08;13.80;99.90
14737;DHT22;7459;53.590;10.062;2023-04-24T09:26:46;13.80;99.90
14737;DHT22;7459;53.590;10.062;2023-04-24T09:29:18;13.80;99.90
14737;DHT22;7459;53.590;10.062;2023-04-24T09:31:45;13.80;99.90
14737;DHT22;7459;53.590;10.062;2023-04-24T09:34:11;13.80;99.90
14737;DHT22;7459;53.590;10.062;2023-04-24T09:36:42;13.80;99.90
14737;DHT22;7459;53.590;10.062;2023-04-24T09:39:10;13.80;99.90
14737;DHT22;7459;53.590;10.062;2023-04-24T09:44:23;13.70;99.90
14737;DHT22;7459;53.590;10.062;2023-04-24T09:46:56;13.80;99.90
14737;DHT22;7459;53.590;10.062;2023-04-24T09:49:24;13.80;99.90
14737;DHT22;7459;53.590;10.062;2023-04-24T09:52:08;13.80;99.90
14737;DHT22;7459;53.590;10.062;2023-04-24T09:54:35;13.80;99.90
14737;DHT22;7459;53.590;10.062;2023-04-24T09:57:02;13.70;99.90
14737;DHT22;7459;53.590;10.062;2023-04-24T09:59:29;13.70;99.90
14737;DHT22;7459;53.590;10.062;2023-04-24T10:01:55;13.70;99.90
14737;DHT22;7459;53.590;10.062;2023-04-24T10:04:25;13.70;99.90
14737;DHT22;7459;53.590;10.062;2023-04-24T10:06:54;13.70;99.90
14737;DHT22;7459;53.590;10.062;2023-04-24T10:09:25;13.60;99.90
14737;DHT22;7459;53.590;10.062;2023-04-24T10:11:52;13.60;99.90
14737;DHT22;7459;53.590;10.062;2023-04-24T10:14:20;13.60;99.90
14737;DHT22;7459;53.590;10.062;2023-04-24T10:16:48;13.60;99.90
14737;DHT22;7459;53.590;10.062;2023-04-24T10:19:16;13.50;99.90
14737;DHT22;7459;53.590;10.062;2023-04-24T10:21:44;13.50;99.90
14737;DHT22;7459;53.590;10.062;2023-04-24T10:24:14;13.50;99.90
14737;DHT22;7459;53.590;10.062;2023-04-24T10:26:41;13.50;99.90
14737;DHT22;7459;53.590;10.062;2023-04-24T10:29:09;13.60;99.90
14737;DHT22;7459;53.590;10.062;2023-04-24T10:31:37;13.60;99.90
14737;DHT22;7459;53.590;10.062;2023-04-24T10:34:05;13.60;99.90
14737;DHT22;7459;53.590;10.062;2023-04-24T10:36:34;13.60;99.90
14737;DHT22;7459;53.590;10.062;2023-04-24T10:39:05;13.60;99.90
14737;DHT22;7459;53.590;10.062;2023-04-24T10:41:33;13.60;99.90
14737;DHT22;7459;53.590;10.062;2023-04-24T10:44:06;13.60;99.90
14737;DHT22;7459;53.590;10.062;2023-04-24T10:46:32;13.60;99.90
14737;DHT22;7459;53.590;10.062;2023-04-24T10:48:58;13.60;99.90
14737;DHT22;7459;53.590;10.062;2023-04-24T10:51:42;13.60;99.90
14737;DHT22;7459;53.590;10.062;2023-04-24T10:56:53;13.60;99.90
14737;DHT22;7459;53.590;10.062;2023-04-24T10:59:29;13.60;99.90
14737;DHT22;7459;53.590;10.062;2023-04-24T11:02:00;13.60;99.90
14737;DHT22;7459;53.590;10.062;2023-04-24T11:04:30;13.50;99.90
14737;DHT22;7459;53.590;10.062;2023-04-24T11:06:57;13.50;99.90
14737;DHT22;7459;53.590;10.062;2023-04-24T11:09:26;13.50;99.90
14737;DHT22;7459;53.590;10.062;2023-04-24T11:17:29;13.60;99.90
14737;DHT22;7459;53.590;10.062;2023-04-24T11:20:05;13.70;99.90
14737;DHT22;7459;53.590;10.062;2023-04-24T11:22:36;13.70;99.90
14737;DHT22;7459;53.590;10.062;2023-04-24T11:25:06;13.80;99.90
14737;DHT22;7459;53.590;10.062;2023-04-24T11:27:41;13.80;99.90
14737;DHT22;7459;53.590;10.062;2023-04-24T11:30:09;13.90;99.90
14737;DHT22;7459;53.590;10.062;2023-04-24T11:32:37;13.90;99.90
14737;DHT22;7459;53.590;10.062;2023-04-24T11:37:45;14.00;99.90
14737;DHT22;7459;53.590;10.062;2023-04-24T11:40:13;14.10;99.90
14737;DHT22;7459;53.590;10.062;2023-04-24T11:42:47;14.10;99.90
14737;DHT22;7459;53.590;10.062;2023-04-24T11:45:15;14.10;99.90
14737;DHT22;7459;53.590;10.062;2023-04-24T11:47:46;14.20;99.90
14737;DHT22;7459;53.590;10.062;2023-04-24T11:50:14;14.20;99.90
14737;DHT22;7459;53.590;10.062;2023-04-24T11:52:42;14.20;99.90
14737;DHT22;7459;53.590;10.062;2023-04-24T11:57:49;14.10;99.90
14737;DHT22;7459;53.590;10.062;2023-04-24T12:00:24;14.20;99.90
14737;DHT22;7459;53.590;10.062;2023-04-24T12:03:02;14.10;99.90
14737;DHT22;7459;53.590;10.062;2023-04-24T12:05:29;14.20;99.90
14737;DHT22;7459;53.590;10.062;2023-04-24T12:07:56;14.10;99.90
14737;DHT22;7459;53.590;10.062;2023-04-24T12:10:24;14.10;99.90
14737;DHT22;7459;53.590;10.062;2023-04-24T12:12:52;14.10;99.90
14737;DHT22;7459;53.590;10.062;2023-04-24T12:15:20;14.10;99.90
14737;DHT22;7459;53.590;10.062;2023-04-24T12:17:46;14.10;99.90
14737;DHT22;7459;53.590;10.062;2023-04-24T12:20:13;14.10;99.90
14737;DHT22;7459;53.590;10.062;2023-04-24T12:25:12;14.10;99.90
14737;DHT22;7459;53.590;10.062;2023-04-24T12:27:38;14.10;99.90
14737;DHT22;7459;53.590;10.062;2023-04-24T12:30:05;14.10;99.90
14737;DHT22;7459;53.590;10.062;2023-04-24T12:32:34;14.10;99.90
14737;DHT22;7459;53.590;10.062;2023-04-24T12:35:00;14.10;99.90
14737;DHT22;7459;53.590;10.062;2023-04-24T12:37:31;14.10;99.90
14737;DHT22;7459;53.590;10.062;2023-04-24T12:40:08;14.10;99.90
14737;DHT22;7459;53.590;10.062;2023-04-24T12:42:35;14.00;99.90
14737;DHT22;7459;53.590;10.062;2023-04-24T12:45:08;14.00;99.90
14737;DHT22;7459;53.590;10.062;2023-04-24T12:47:34;14.00;99.90
14737;DHT22;7459;53.590;10.062;2023-04-24T12:50:01;14.00;99.90
14737;DHT22;7459;53.590;10.062;2023-04-24T12:52:29;13.90;99.90
14737;DHT22;7459;53.590;10.062;2023-04-24T12:54:59;13.90;99.90
14737;DHT22;7459;53.590;10.062;2023-04-24T12:57:27;13.90;99.90
14737;DHT22;7459;53.590;10.062;2023-04-24T12:59:55;13.90;99.90
14737;DHT22;7459;53.590;10.062;2023-04-24T13:02:22;13.80;99.90
14737;DHT22;7459;53.590;10.062;2023-04-24T13:04:48;13.80;99.90
14737;DHT22;7459;53.590;10.062;2023-04-24T13:07:16;13.80;99.90
14737;DHT22;7459;53.590;10.062;2023-04-24T13:09:42;13.70;99.90
14737;DHT22;7459;53.590;10.062;2023-04-24T13:12:10;13.70;99.90
14737;DHT22;7459;53.590;10.062;2023-04-24T13:14:36;13.70;99.90
14737;DHT22;7459;53.590;10.062;2023-04-24T13:17:02;13.70;99.90
14737;DHT22;7459;53.590;10.062;2023-04-24T13:19:29;13.60;99.90
14737;DHT22;7459;53.590;10.062;2023-04-24T13:21:55;13.60;99.90
14737;DHT22;7459;53.590;10.062;2023-04-24T13:24:24;13.60;99.90
14737;DHT22;7459;53.590;10.062;2023-04-24T13:26:54;13.50;99.90
14737;DHT22;7459;53.590;10.062;2023-04-24T13:29:22;13.50;99.90
14737;DHT22;7459;53.590;10.062;2023-04-24T13:31:50;13.50;99.90
14737;DHT22;7459;53.590;10.062;2023-04-24T13:34:17;13.50;99.90
14737;DHT22;7459;53.590;10.062;2023-04-24T13:36:43;13.40;99.90
14737;DHT22;7459;53.590;10.062;2023-04-24T13:39:09;13.40;99.90
14737;DHT22;7459;53.590;10.062;2023-04-24T13:41:35;13.40;99.90
14737;DHT22;7459;53.590;10.062;2023-04-24T13:44:02;13.40;99.90
14737;DHT22;7459;53.590;10.062;2023-04-24T13:46:28;13.40;99.90
14737;DHT22;7459;53.590;10.062;2023-04-24T13:48:54;13.40;99.90
14737;DHT22;7459;53.590;10.062;2023-04-24T13:51:20;13.40;99.90
14737;DHT22;7459;53.590;10.062;2023-04-24T13:53:46;13.30;99.90
14737;DHT22;7459;53.590;10.062;2023-04-24T13:56:11;13.40;99.90
14737;DHT22;7459;53.590;10.062;2023-04-24T13:58:39;13.30;99.90
14737;DHT22;7459;53.590;10.062;2023-04-24T14:01:04;13.30;99.90
14737;DHT22;7459;53.590;10.062;2023-04-24T14:03:30;13.40;99.90
14737;DHT22;7459;53.590;10.062;2023-04-24T14:05:56;13.40;99.90
14737;DHT22;7459;53.590;10.062;2023-04-24T14:08:22;13.30;99.90
14737;DHT22;7459;53.590;10.062;2023-04-24T14:10:49;13.30;99.90
14737;DHT22;7459;53.590;10.062;2023-04-24T14:13:16;13.30;99.90
14737;DHT22;7459;53.590;10.062;2023-04-24T14:15:42;13.30;99.90
14737;DHT22;7459;53.590;10.062;2023-04-24T14:18:08;13.20;99.90
14737;DHT22;7459;53.590;10.062;2023-04-24T14:20:33;13.20;99.90
14737;DHT22;7459;53.590;10.062;2023-04-24T14:22:59;13.20;99.90
14737;DHT22;7459;53.590;10.062;2023-04-24T14:25:25;13.10;99.90
14737;DHT22;7459;53.590;10.062;2023-04-24T14:27:51;13.20;99.90
14737;DHT22;7459;53.590;10.062;2023-04-24T14:30:18;13.10;99.90
14737;DHT22;7459;53.590;10.062;2023-04-24T14:32:44;13.20;99.90
14737;DHT22;7459;53.590;10.062;2023-04-24T14:35:10;13.10;99.90
14737;DHT22;7459;53.590;10.062;2023-04-24T14:37:36;13.10;99.90
14737;DHT22;7459;53.590;10.062;2023-04-24T14:40:02;13.20;99.90
14737;DHT22;7459;53.590;10.062;2023-04-24T14:42:30;13.20;99.90
14737;DHT22;7459;53.590;10.062;2023-04-24T14:44:56;13.20;99.90
14737;DHT22;7459;53.590;10.062;2023-04-24T14:47:22;13.10;99.90
14737;DHT22;7459;53.590;10.062;2023-04-24T14:49:48;13.10;99.90
14737;DHT22;7459;53.590;10.062;2023-04-24T14:52:14;12.90;99.90
14737;DHT22;7459;53.590;10.062;2023-04-24T14:54:39;12.70;99.90
14737;DHT22;7459;53.590;10.062;2023-04-24T14:57:05;12.70;99.90
14737;DHT22;7459;53.590;10.062;2023-04-24T14:59:31;12.70;99.90
14737;DHT22;7459;53.590;10.062;2023-04-24T15:01:57;12.60;99.90
14737;DHT22;7459;53.590;10.062;2023-04-24T15:04:24;12.40;99.90
14737;DHT22;7459;53.590;10.062;2023-04-24T15:06:53;12.50;99.90
14737;DHT22;7459;53.590;10.062;2023-04-24T15:09:20;12.50;99.90
14737;DHT22;7459;53.590;10.062;2023-04-24T15:11:47;12.40;99.90
14737;DHT22;7459;53.590;10.062;2023-04-24T15:14:14;12.40;99.90
14737;DHT22;7459;53.590;10.062;2023-04-24T15:16:40;12.40;99.90
14737;DHT22;7459;53.590;10.062;2023-04-24T15:19:06;12.30;99.90
14737;DHT22;7459;53.590;10.062;2023-04-24T15:21:31;12.40;99.90
14737;DHT22;7459;53.590;10.062;2023-04-24T15:23:57;12.30;99.90
14737;DHT22;7459;53.590;10.062;2023-04-24T15:26:24;12.30;99.90
14737;DHT22;7459;53.590;10.062;2023-04-24T15:28:50;12.20;99.90
14737;DHT22;7459;53.590;10.062;2023-04-24T15:31:17;12.20;99.90
14737;DHT22;7459;53.590;10.062;2023-04-24T15:33:43;12.10;99.90
14737;DHT22;7459;53.590;10.062;2023-04-24T15:36:09;11.90;99.90
14737;DHT22;7459;53.590;10.062;2023-04-24T15:38:35;11.70;99.90
14737;DHT22;7459;53.590;10.062;2023-04-24T15:41:01;11.50;99.90
14737;DHT22;7459;53.590;10.062;2023-04-24T15:43:27;11.40;99.90
14737;DHT22;7459;53.590;10.062;2023-04-24T15:45:56;11.20;99.90
14737;DHT22;7459;53.590;10.062;2023-04-24T15:48:22;11.10;99.90